Time;durP1;ratioP1;P1;durP2;ratioP2;P2;SDS_P1;SDS_P2;PMS_P1;PMS_P2;Temp;Humidity;BMP_temperature;BMP_pressure;BME280_temperature;BME280_humidity;BME280_pressure;Samples;Min_cycle;Max_cycle;Signal;HPM_P1;HPM_P2
2022/07/04 00:00:36;;;;;;;4.70;2.70;;;;;;;;;;10366759;28;20055;-76
2022/07/04 00:05:37;;;;;;;3.20;2.90;;;;;;;;;;10405229;28;20069;-78
2022/07/04 00:10:38;;;;;;;2.63;2.42;;;;;;;;;;10394490;28;20097;-76
2022/07/04 00:15:38;;;;;;;3.60;2.73;;;;;;;;;;10385138;28;20048;-77
2022/07/04 00:20:39;;;;;;;2.90;2.70;;;;;;;;;;10364458;28;20281;-76
2022/07/04 00:25:39;;;;;;;3.00;2.70;;;;;;;;;;10359115;28;20046;-76
2022/07/04 00:30:40;;;;;;;4.88;3.20;;;;;;;;;;10342636;28;20046;-77
2022/07/04 00:35:40;;;;;;;3.40;3.08;;;;;;;;;;10348845;28;20381;-76
2022/07/04 00:40:40;;;;;;;2.83;2.63;;;;;;;;;;10339404;28;20472;-76
2022/07/04 00:45:41;;;;;;;3.30;2.75;;;;;;;;;;10341046;28;20047;-77
2022/07/04 00:50:42;;;;;;;3.23;2.63;;;;;;;;;;10352878;28;20055;-77
2022/07/04 00:55:43;;;;;;;3.10;2.80;;;;;;;;;;10345618;28;20288;-77
2022/07/04 01:00:44;;;;;;;3.55;2.83;;;;;;;;;;10344785;28;20083;-77
2022/07/04 01:05:45;;;;;;;3.28;2.90;;;;;;;;;;10334594;28;20046;-76
2022/07/04 01:10:46;;;;;;;2.77;2.57;;;;;;;;;;10346072;28;20053;-76
2022/07/04 01:15:46;;;;;;;3.73;2.47;;;;;;;;;;10340142;28;20498;-77
2022/07/04 01:20:47;;;;;;;4.68;2.88;;;;;;;;;;10349470;28;20404;-76
2022/07/04 01:25:50;;;;;;;2.90;2.67;;;;;;;;;;10357540;28;20042;-76
2022/07/04 01:30:50;;;;;;;;;;;;;;;;;;10337266;28;20046;-76
2022/07/04 01:35:50;;;;;;;2.88;2.67;;;;;;;;;;10342272;28;19909;-77
2022/07/04 01:40:51;;;;;;;3.20;2.90;;;;;;;;;;10328739;28;20053;-76
2022/07/04 01:45:52;;;;;;;3.08;2.80;;;;;;;;;;10339124;28;20301;-77
2022/07/04 01:50:53;;;;;;;3.03;2.72;;;;;;;;;;10337573;28;20046;-78
2022/07/04 01:55:53;;;;;;;3.13;2.83;;;;;;;;;;10343229;28;20061;-76
2022/07/04 02:06:13;;;;;;;3.63;3.33;;;;;;;;;;10372977;28;20146;-75
2022/07/04 02:11:13;;;;;;;3.22;2.90;;;;;;;;;;10372846;28;20058;-77
2022/07/04 02:16:13;;;;;;;3.10;2.90;;;;;;;;;;10337743;28;20076;-77
2022/07/04 02:21:14;;;;;;;3.37;2.90;;;;;;;;;;10351951;28;20034;-78
2022/07/04 02:26:14;;;;;;;3.55;3.00;;;;;;;;;;10352391;28;20282;-77
2022/07/04 02:31:15;;;;;;;3.40;3.10;;;;;;;;;;10352873;28;20164;-77
2022/07/04 02:36:15;;;;;;;4.13;3.23;;;;;;;;;;10324435;28;20138;-78
2022/07/04 02:41:15;;;;;;;3.35;3.05;;;;;;;;;;10339585;28;20050;-78
2022/07/04 02:46:16;;;;;;;3.15;2.95;;;;;;;;;;10354535;28;20045;-78
2022/07/04 02:51:16;;;;;;;3.80;2.77;;;;;;;;;;10346227;28;20054;-77
2022/07/04 02:56:17;;;;;;;3.10;2.90;;;;;;;;;;10355647;28;21023;-78
2022/07/04 03:01:20;;;;;;;3.30;3.00;;;;;;;;;;10349602;28;20134;-78
2022/07/04 03:06:21;;;;;;;3.28;2.97;;;;;;;;;;10356070;28;20288;-77
2022/07/04 03:11:21;;;;;;;3.30;3.00;;;;;;;;;;10353938;28;20371;-78
2022/07/04 03:16:22;;;;;;;3.50;3.20;;;;;;;;;;10350213;28;20061;-77
2022/07/04 03:21:24;;;;;;;3.27;2.83;;;;;;;;;;10359961;28;20256;-77
2022/07/04 03:26:29;;;;;;;3.40;3.10;;;;;;;;;;10353447;28;20097;-78
2022/07/04 03:31:31;;;;;;;5.47;3.25;;;;;;;;;;10393092;28;20046;-77
2022/07/04 03:36:31;;;;;;;3.13;2.92;;;;;;;;;;10395899;28;20043;-77
2022/07/04 03:41:31;;;;;;;2.93;2.73;;;;;;;;;;10374606;28;20044;-76
2022/07/04 03:46:32;;;;;;;3.00;2.70;;;;;;;;;;10353572;28;21055;-78
2022/07/04 03:51:32;;;;;;;3.05;2.58;;;;;;;;;;10348935;28;20281;-77
2022/07/04 03:56:33;;;;;;;3.05;2.85;;;;;;;;;;10335577;28;20042;-79
2022/07/04 04:01:37;;;;;;;2.83;2.50;;;;;;;;;;10355974;28;20381;-78
2022/07/04 04:06:40;;;;;;;3.30;2.37;;;;;;;;;;10361699;28;20057;-78
2022/07/04 04:11:40;;;;;;;4.28;2.75;;;;;;;;;;10351105;28;20058;-78
2022/07/04 04:16:42;;;;;;;3.40;3.10;;;;;;;;;;10344004;28;20060;-78
2022/07/04 04:21:42;;;;;;;3.37;2.67;;;;;;;;;;10347336;28;20041;-76
2022/07/04 04:26:44;;;;;;;3.55;2.70;;;;;;;;;;10347383;28;20364;-77
2022/07/04 04:31:44;;;;;;;3.35;3.03;;;;;;;;;;10338393;28;20054;-79
2022/07/04 04:36:45;;;;;;;2.70;2.50;;;;;;;;;;10346355;28;20042;-79
2022/07/04 04:41:49;;;;;;;3.30;2.60;;;;;;;;;;10354621;28;20061;-80
2022/07/04 04:46:51;;;;;;;2.90;2.60;;;;;;;;;;10341926;28;20053;-76
2022/07/04 04:51:52;;;;;;;3.70;2.90;;;;;;;;;;10340712;28;20051;-80
2022/07/04 04:56:52;;;;;;;2.63;2.42;;;;;;;;;;10332063;28;20270;-78
2022/07/04 05:01:53;;;;;;;2.83;2.53;;;;;;;;;;10343118;28;20042;-73
2022/07/04 05:06:53;;;;;;;3.33;3.03;;;;;;;;;;10341121;28;20034;-74
2022/07/04 05:11:54;;;;;;;3.20;2.70;;;;;;;;;;10350190;28;20296;-75
2022/07/04 05:16:54;;;;;;;4.10;2.83;;;;;;;;;;10344913;28;20086;-76
2022/07/04 05:21:55;;;;;;;3.33;2.70;;;;;;;;;;10350782;28;20426;-74
2022/07/04 05:26:55;;;;;;;3.80;3.10;;;;;;;;;;10336850;28;20278;-75
2022/07/04 05:31:55;;;;;;;3.83;3.42;;;;;;;;;;10329797;28;20061;-73
2022/07/04 05:36:56;;;;;;;4.67;3.20;;;;;;;;;;10328669;28;20042;-74
2022/07/04 05:41:56;;;;;;;3.17;2.77;;;;;;;;;;10333976;28;20373;-73
2022/07/04 05:46:57;;;;;;;3.17;2.92;;;;;;;;;;10344978;28;20332;-74
2022/07/04 05:51:57;;;;;;;3.47;3.17;;;;;;;;;;10351008;28;20498;-77
2022/07/04 05:56:57;;;;;;;3.10;2.80;;;;;;;;;;10373309;28;20114;-78
2022/07/04 06:01:59;;;;;;;3.22;2.92;;;;;;;;;;10390185;28;20259;-80
2022/07/04 06:07:00;;;;;;;3.10;2.90;;;;;;;;;;10357087;28;20043;-78
2022/07/04 06:12:00;;;;;;;3.40;2.78;;;;;;;;;;10343871;28;20041;-77
2022/07/04 06:17:02;;;;;;;3.67;3.43;;;;;;;;;;10334852;28;20055;-77
2022/07/04 06:22:03;;;;;;;2.90;2.67;;;;;;;;;;10354993;28;20042;-77
2022/07/04 06:27:04;;;;;;;4.05;3.20;;;;;;;;;;10341420;28;20049;-77
2022/07/04 06:32:04;;;;;;;3.60;3.05;;;;;;;;;;10362163;28;20404;-79
2022/07/04 06:37:05;;;;;;;4.13;2.97;;;;;;;;;;10358971;28;20045;-78
2022/07/04 06:42:07;;;;;;;3.93;3.07;;;;;;;;;;10363835;28;20145;-78
2022/07/04 06:47:08;;;;;;;3.50;3.20;;;;;;;;;;10388813;28;20044;-78
2022/07/04 06:52:08;;;;;;;3.40;3.20;;;;;;;;;;10407415;28;20058;-78
2022/07/04 06:57:09;;;;;;;11.52;9.98;;;;;;;;;;10405758;28;20072;-75
2022/07/04 07:02:10;;;;;;;4.00;3.60;;;;;;;;;;10374608;28;20034;-75
2022/07/04 07:07:11;;;;;;;3.80;3.23;;;;;;;;;;10355047;28;20145;-75
2022/07/04 07:12:11;;;;;;;4.43;3.73;;;;;;;;;;10346368;28;20277;-75
2022/07/04 07:17:12;;;;;;;4.07;3.70;;;;;;;;;;10362777;28;20285;-74
2022/07/04 07:22:13;;;;;;;4.67;3.60;;;;;;;;;;10355161;28;20034;-77
2022/07/04 07:27:14;;;;;;;6.35;4.13;;;;;;;;;;10349016;28;20035;-74
2022/07/04 07:32:14;;;;;;;3.40;3.10;;;;;;;;;;10343293;28;20074;-74
2022/07/04 07:37:17;;;;;;;6.75;3.70;;;;;;;;;;10341791;28;21097;-74
2022/07/04 07:42:17;;;;;;;;;;;;;;;;;;10345526;28;20073;-76
2022/07/04 07:47:18;;;;;;;4.30;3.92;;;;;;;;;;10357145;28;19956;-75
2022/07/04 07:52:18;;;;;;;3.50;3.20;;;;;;;;;;10341061;28;20329;-74
2022/07/04 07:57:19;;;;;;;4.68;3.80;;;;;;;;;;10346190;28;20042;-75
2022/07/04 08:02:19;;;;;;;4.55;4.05;;;;;;;;;;10356066;28;20034;-74
2022/07/04 08:07:20;;;;;;;4.10;3.70;;;;;;;;;;10347436;28;20433;-75
2022/07/04 08:12:20;;;;;;;4.63;4.25;;;;;;;;;;10360895;28;20091;-77
2022/07/04 08:17:21;;;;;;;5.07;4.07;;;;;;;;;;10353464;28;20045;-75
2022/07/04 08:22:21;;;;;;;4.10;3.80;;;;;;;;;;10354298;28;20576;-76
2022/07/04 08:27:24;;;;;;;3.90;3.47;;;;;;;;;;10359647;28;20065;-75
2022/07/04 08:32:24;;;;;;;4.07;3.38;;;;;;;;;;10352211;28;20514;-76
2022/07/04 08:37:25;;;;;;;4.40;4.00;;;;;;;;;;10343781;28;20057;-75
2022/07/04 08:42:28;;;;;;;3.92;3.63;;;;;;;;;;10354031;28;20038;-75
2022/07/04 08:47:30;;;;;;;3.45;3.22;;;;;;;;;;10340350;28;20505;-76
2022/07/04 08:52:35;;;;;;;5.15;3.80;;;;;;;;;;10356980;28;20057;-75
2022/07/04 09:03:00;;;;;;;5.00;3.60;;;;;;;;;;10351648;28;20052;-74
2022/07/04 09:08:02;;;;;;;7.13;3.85;;;;;;;;;;10351818;28;20044;-75
2022/07/04 09:13:03;;;;;;;4.80;4.33;;;;;;;;;;10346272;28;20081;-74
2022/07/04 09:18:04;;;;;;;4.00;3.70;;;;;;;;;;10352823;28;20050;-75
2022/07/04 09:23:16;;;;;;;3.85;3.53;;;;;;;;;;10344573;28;20034;-76
2022/07/04 09:28:28;;;;;;;4.95;3.95;;;;;;;;;;10346522;28;20447;-75
2022/07/04 09:33:44;;;;;;;5.55;5.00;;;;;;;;;;10361099;28;20057;-75
2022/07/04 09:38:45;;;;;;;4.55;4.15;;;;;;;;;;10359575;28;20038;-77
2022/07/04 09:44:05;;;;;;;3.83;3.45;;;;;;;;;;10354969;28;20180;-75
2022/07/04 09:49:05;;;;;;;3.55;3.10;;;;;;;;;;10349717;28;20053;-74
2022/07/04 09:54:13;;;;;;;6.03;4.03;;;;;;;;;;10344138;28;20069;-74
2022/07/04 09:59:13;;;;;;;3.60;3.35;;;;;;;;;;10353759;28;20345;-75
2022/07/04 10:04:27;;;;;;;4.00;3.63;;;;;;;;;;10351272;28;20068;-75
2022/07/04 10:09:31;;;;;;;4.57;3.55;;;;;;;;;;10361918;28;20082;-74
2022/07/04 10:14:31;;;;;;;4.00;3.60;;;;;;;;;;10361880;28;20125;-75
2022/07/04 10:19:35;;;;;;;3.75;3.30;;;;;;;;;;10317079;28;20285;-75
2022/07/04 10:24:35;;;;;;;3.53;3.22;;;;;;;;;;10352104;28;20730;-75
2022/07/04 10:29:37;;;;;;;4.50;4.10;;;;;;;;;;10355450;28;20050;-75
2022/07/04 10:34:40;;;;;;;4.60;3.58;;;;;;;;;;10358211;28;20104;-75
2022/07/04 10:39:46;;;;;;;3.90;3.50;;;;;;;;;;10348509;28;20056;-74
2022/07/04 10:44:48;;;;;;;5.00;3.35;;;;;;;;;;10359571;28;20101;-75
2022/07/04 10:49:51;;;;;;;6.03;3.88;;;;;;;;;;10341992;28;20097;-75
2022/07/04 10:54:51;;;;;;;4.30;3.42;;;;;;;;;;10358342;28;20061;-77
2022/07/04 10:59:52;;;;;;;4.57;4.07;;;;;;;;;;10354064;28;20050;-76
2022/07/04 11:04:52;;;;;;;3.90;3.33;;;;;;;;;;10354641;28;20049;-76
2022/07/04 11:15:32;;;;;;;4.68;3.47;;;;;;;;;;10354658;28;20058;-76
2022/07/04 11:20:38;;;;;;;3.45;3.15;;;;;;;;;;10352184;28;20049;-76
2022/07/04 11:25:39;;;;;;;2.88;2.67;;;;;;;;;;10346375;28;20072;-75
2022/07/04 11:30:47;;;;;;;3.23;2.67;;;;;;;;;;10352087;28;20249;-76
2022/07/04 11:36:04;;;;;;;3.13;2.90;;;;;;;;;;10348064;28;20273;-77
2022/07/04 11:46:24;;;;;;;2.85;2.45;;;;;;;;;;10352154;28;22137;-79
2022/07/04 11:51:24;;;;;;;4.57;3.97;;;;;;;;;;10349507;28;20744;-75
2022/07/04 11:56:24;;;;;;;2.50;2.30;;;;;;;;;;10339360;28;20054;-75
2022/07/04 12:01:26;;;;;;;2.57;2.20;;;;;;;;;;10346573;28;20460;-75
2022/07/04 12:06:27;;;;;;;3.83;1.92;;;;;;;;;;10337997;28;20049;-76
2022/07/04 12:11:46;;;;;;;2.63;2.20;;;;;;;;;;10346145;28;20054;-75
2022/07/04 12:16:47;;;;;;;4.43;2.10;;;;;;;;;;10309846;28;1173763;-76
2022/07/04 12:21:47;;;;;;;2.67;2.20;;;;;;;;;;10363006;28;20054;-77
2022/07/04 12:26:48;;;;;;;2.90;2.50;;;;;;;;;;10361939;28;20498;-75
2022/07/04 12:31:51;;;;;;;2.47;1.83;;;;;;;;;;10375216;28;20042;-78
2022/07/04 12:36:52;;;;;;;1.98;1.77;;;;;;;;;;10379911;28;20046;-75
2022/07/04 12:42:03;;;;;;;1.95;1.75;;;;;;;;;;10377736;28;20021;-76
2022/07/04 12:47:04;;;;;;;2.45;1.65;;;;;;;;;;10377383;28;20079;-75
2022/07/04 12:52:08;;;;;;;2.88;1.85;;;;;;;;;;10357795;28;20137;-76
2022/07/04 12:57:12;;;;;;;1.80;1.70;;;;;;;;;;10359812;28;20541;-76
2022/07/04 13:02:13;;;;;;;3.05;1.67;;;;;;;;;;10352507;28;20069;-77
2022/07/04 13:07:15;;;;;;;1.83;1.73;;;;;;;;;;10406393;28;20045;-75
2022/07/04 13:12:24;;;;;;;1.80;1.70;;;;;;;;;;10388982;28;20053;-78
2022/07/04 13:17:25;;;;;;;1.92;1.60;;;;;;;;;;10387088;28;20084;-74
2022/07/04 13:22:26;;;;;;;2.55;1.77;;;;;;;;;;10371280;28;20049;-77
2022/07/04 13:27:28;;;;;;;1.75;1.65;;;;;;;;;;10352041;28;20053;-76
2022/07/04 13:32:28;;;;;;;1.98;1.73;;;;;;;;;;10344570;28;20050;-75
2022/07/04 13:37:29;;;;;;;2.97;1.60;;;;;;;;;;10340178;28;20074;-75
2022/07/04 13:47:55;;;;;;;2.58;1.55;;;;;;;;;;10355591;28;20385;-78
2022/07/04 13:52:56;;;;;;;3.03;2.50;;;;;;;;;;10354091;28;20110;-76
2022/07/04 13:57:56;;;;;;;1.73;1.63;;;;;;;;;;10353746;28;20038;-77
2022/07/04 14:02:57;;;;;;;4.03;1.73;;;;;;;;;;10314926;28;20044;-75
2022/07/04 14:07:57;;;;;;;2.77;1.80;;;;;;;;;;10350015;28;20108;-75
2022/07/04 14:12:58;;;;;;;2.90;1.70;;;;;;;;;;10344782;28;20038;-78
2022/07/04 14:17:58;;;;;;;7.73;2.10;;;;;;;;;;10332231;28;20045;-76
2022/07/04 14:22:58;;;;;;;2.50;1.53;;;;;;;;;;10341811;28;20064;-76
2022/07/04 14:27:59;;;;;;;3.17;2.87;;;;;;;;;;10337260;28;20042;-76
2022/07/04 14:32:59;;;;;;;3.03;2.17;;;;;;;;;;10326900;28;20404;-79
2022/07/04 14:38:01;;;;;;;1.93;1.77;;;;;;;;;;10344102;28;20551;-78
2022/07/04 14:43:01;;;;;;;2.53;2.30;;;;;;;;;;10337935;28;20081;-78
2022/07/04 14:48:02;;;;;;;1.57;1.40;;;;;;;;;;10346968;28;20145;-78
2022/07/04 14:53:05;;;;;;;2.63;1.83;;;;;;;;;;10346692;28;20041;-78
2022/07/04 14:58:06;;;;;;;4.63;2.45;;;;;;;;;;10329926;28;20041;-79
2022/07/04 15:03:07;;;;;;;4.03;3.20;;;;;;;;;;10361071;28;20041;-76
2022/07/04 15:08:08;;;;;;;4.70;4.20;;;;;;;;;;10348799;28;20049;-76
2022/07/04 15:13:09;;;;;;;2.50;2.30;;;;;;;;;;10357974;28;20046;-74
2022/07/04 15:18:12;;;;;;;3.80;2.43;;;;;;;;;;10348285;28;20050;-75
2022/07/04 15:28:32;;;;;;;2.05;1.50;;;;;;;;;;10361265;28;20050;-77
2022/07/04 15:33:32;;;;;;;2.47;1.40;;;;;;;;;;10344221;28;20049;-76
2022/07/04 15:38:32;;;;;;;1.67;1.50;;;;;;;;;;10356829;28;20350;-77
2022/07/04 15:43:33;;;;;;;1.83;1.30;;;;;;;;;;10357735;28;20096;-75
2022/07/04 15:48:33;;;;;;;2.50;1.73;;;;;;;;;;10352213;28;20366;-75
2022/07/04 15:53:34;;;;;;;3.77;1.70;;;;;;;;;;10333074;28;20446;-77
2022/07/04 15:58:34;;;;;;;1.40;1.30;;;;;;;;;;10345871;28;20030;-75
2022/07/04 16:03:35;;;;;;;1.43;1.30;;;;;;;;;;10357211;28;20052;-77
2022/07/04 16:08:35;;;;;;;1.20;1.07;;;;;;;;;;10344507;28;20042;-74
2022/07/04 16:13:37;;;;;;;1.70;1.40;;;;;;;;;;10370691;28;20060;-74
2022/07/04 16:18:37;;;;;;;1.50;1.20;;;;;;;;;;10378142;28;20057;-77
2022/07/04 16:23:38;;;;;;;1.63;1.30;;;;;;;;;;10354243;28;20041;-77
2022/07/04 16:28:38;;;;;;;2.40;1.10;;;;;;;;;;10378725;28;20509;-77
2022/07/04 16:33:39;;;;;;;1.43;1.30;;;;;;;;;;10338235;28;20049;-79
2022/07/04 16:38:39;;;;;;;1.90;1.80;;;;;;;;;;10364485;28;20069;-77
2022/07/04 16:43:41;;;;;;;1.77;1.67;;;;;;;;;;10360103;28;20038;-76
2022/07/04 16:48:42;;;;;;;1.35;1.25;;;;;;;;;;10344360;28;20128;-81
2022/07/04 16:53:43;;;;;;;2.70;2.27;;;;;;;;;;10352692;28;20102;-79
2022/07/04 16:58:43;;;;;;;2.00;1.60;;;;;;;;;;10370995;28;20553;-77
2022/07/04 17:03:44;;;;;;;1.90;1.80;;;;;;;;;;10369145;28;20057;-78
2022/07/04 17:08:52;;;;;;;3.70;1.80;;;;;;;;;;10368740;28;20045;-80
2022/07/04 17:13:53;;;;;;;3.20;1.80;;;;;;;;;;10338709;28;20423;-76
2022/07/04 17:18:54;;;;;;;4.23;2.33;;;;;;;;;;10368980;28;20061;-73
2022/07/04 17:23:54;;;;;;;2.83;1.30;;;;;;;;;;10360553;28;20041;-76
2022/07/04 17:28:54;;;;;;;1.40;1.30;;;;;;;;;;10335136;28;20046;-80
2022/07/04 17:33:57;;;;;;;2.37;2.17;;;;;;;;;;10338481;28;20056;-76
2022/07/04 17:38:57;;;;;;;2.05;1.77;;;;;;;;;;10334603;28;20046;-77
2022/07/04 17:43:57;;;;;;;2.70;1.43;;;;;;;;;;10347763;28;20048;-77
2022/07/04 17:48:58;;;;;;;1.30;1.10;;;;;;;;;;10349558;28;20060;-75
2022/07/04 17:53:58;;;;;;;1.77;1.07;;;;;;;;;;10356511;28;20449;-79
2022/07/04 17:58:59;;;;;;;1.20;1.00;;;;;;;;;;10356410;28;20129;-79
2022/07/04 18:03:59;;;;;;;1.13;1.00;;;;;;;;;;10360518;28;20064;-78
2022/07/04 18:09:02;;;;;;;1.35;1.20;;;;;;;;;;10361054;28;20073;-80
2022/07/04 18:14:03;;;;;;;1.23;0.90;;;;;;;;;;10384548;28;20045;-82
2022/07/04 18:19:04;;;;;;;2.67;1.30;;;;;;;;;;10365373;28;20058;-78
2022/07/04 18:24:05;;;;;;;1.50;1.30;;;;;;;;;;10364027;28;20567;-77
2022/07/04 18:29:08;;;;;;;1.23;0.90;;;;;;;;;;10372475;28;20093;-80
2022/07/04 18:34:08;;;;;;;1.23;1.00;;;;;;;;;;10372404;28;20058;-79
2022/07/04 18:44:38;;;;;;;1.50;1.40;;;;;;;;;;10376984;28;20052;-79
2022/07/04 18:49:42;;;;;;;1.73;1.63;;;;;;;;;;10375874;28;20070;-79
2022/07/04 18:54:42;;;;;;;3.15;1.20;;;;;;;;;;10385269;28;20084;-79
2022/07/04 18:59:48;;;;;;;5.05;1.27;;;;;;;;;;10345406;28;20153;-79
2022/07/04 19:04:49;;;;;;;2.10;1.60;;;;;;;;;;10367684;28;20043;-79
2022/07/04 19:09:55;;;;;;;2.05;1.70;;;;;;;;;;10361987;28;20461;-80
2022/07/04 19:15:28;;;;;;;2.10;1.70;;;;;;;;;;10363325;28;20117;-81
2022/07/04 19:20:36;;;;;;;1.80;1.48;;;;;;;;;;10349071;28;20045;-79
2022/07/04 19:25:38;;;;;;;3.08;1.50;;;;;;;;;;10402399;28;20064;-79
2022/07/04 19:30:41;;;;;;;1.85;1.50;;;;;;;;;;10398692;28;20049;-81
2022/07/04 19:35:44;;;;;;;3.70;2.15;;;;;;;;;;10380587;28;20053;-79
2022/07/04 19:40:56;;;;;;;4.10;1.75;;;;;;;;;;10362050;28;20050;-80
2022/07/04 19:45:57;;;;;;;2.25;1.40;;;;;;;;;;10358174;28;20053;-79
2022/07/04 19:50:57;;;;;;;2.60;2.15;;;;;;;;;;10367724;28;20108;-79
2022/07/04 19:55:59;;;;;;;1.98;1.75;;;;;;;;;;10378823;28;20342;-79
2022/07/04 20:01:06;;;;;;;3.63;2.28;;;;;;;;;;10362175;28;20046;-78
2022/07/04 20:06:19;;;;;;;;;;;;;;;;;;;;;
2022/07/04 20:11:36;;;;;;;;;;;;;;;;;;;;;
2022/07/04 20:16:46;;;;;;;3.10;1.50;;;;;;;;;;10348631;28;20041;-78
2022/07/04 20:22:17;;;;;;;;;;;;;;;;;;;;;
2022/07/04 20:27:20;;;;;;;2.03;1.75;;;;;;;;;;10334511;28;20616;-77
2022/07/04 20:32:49;;;;;;;1.92;1.60;;;;;;;;;;10356107;28;20124;-78
2022/07/04 20:38:03;;;;;;;;;;;;;;;;;;;;;
2022/07/04 20:43:04;;;;;;;2.63;1.77;;;;;;;;;;10361817;28;20481;-79
2022/07/04 20:48:08;;;;;;;3.25;2.33;;;;;;;;;;10359392;28;20053;-78
2022/07/04 20:53:12;;;;;;;4.35;2.22;;;;;;;;;;10369855;28;20167;-77
2022/07/04 20:58:36;;;;;;;3.38;1.52;;;;;;;;;;10366290;28;20112;-81
2022/07/04 21:04:15;;;;;;;3.23;1.73;;;;;;;;;;10375980;28;20048;-76
2022/07/04 21:09:29;;;;;;;;;;;;;;;;;;;;;
2022/07/04 21:14:39;;;;;;;2.53;1.60;;;;;;;;;;10361053;28;20058;-78
2022/07/04 21:19:49;;;;;;;2.17;1.60;;;;;;;;;;10376521;28;20381;-78
2022/07/04 21:24:49;;;;;;;1.42;1.30;;;;;;;;;;10369672;28;20064;-79
2022/07/04 21:29:51;;;;;;;1.30;1.20;;;;;;;;;;10348152;28;20119;-75
2022/07/04 21:34:51;;;;;;;2.40;1.90;;;;;;;;;;10354301;28;20563;-76
2022/07/04 21:40:10;;;;;;;3.03;1.98;;;;;;;;;;10320165;28;20553;-77
2022/07/04 21:45:13;;;;;;;3.22;2.30;;;;;;;;;;10354504;28;20089;-77
2022/07/04 21:50:14;;;;;;;2.72;1.40;;;;;;;;;;10352637;28;20073;-79
2022/07/04 21:55:15;;;;;;;1.63;1.52;;;;;;;;;;10370754;28;20176;-78
2022/07/04 22:00:24;;;;;;;1.88;1.20;;;;;;;;;;10343041;28;20053;-78
2022/07/04 22:05:26;;;;;;;2.15;1.65;;;;;;;;;;10344847;28;20138;-77
2022/07/04 22:10:37;;;;;;;1.65;1.30;;;;;;;;;;10338523;28;20109;-78
2022/07/04 22:15:37;;;;;;;1.20;0.80;;;;;;;;;;10353686;28;20060;-77
2022/07/04 22:20:38;;;;;;;1.92;1.48;;;;;;;;;;10345113;28;20389;-77
2022/07/04 22:25:48;;;;;;;3.85;1.23;;;;;;;;;;10350393;28;20396;-75
2022/07/04 22:30:48;;;;;;;1.55;0.95;;;;;;;;;;10367321;28;20046;-75
2022/07/04 22:35:56;;;;;;;1.80;1.20;;;;;;;;;;10382008;28;20069;-77
2022/07/04 22:40:57;;;;;;;1.35;1.08;;;;;;;;;;10382262;28;20077;-77
2022/07/04 22:45:57;;;;;;;1.40;1.30;;;;;;;;;;10379103;28;20053;-78
2022/07/04 22:51:11;;;;;;;1.10;1.00;;;;;;;;;;10382071;28;20073;-78
2022/07/04 22:56:13;;;;;;;3.07;1.10;;;;;;;;;;10369108;28;20285;-78
2022/07/04 23:01:14;;;;;;;2.33;1.42;;;;;;;;;;10371086;28;20030;-78
2022/07/04 23:06:16;;;;;;;2.55;1.15;;;;;;;;;;10377536;28;20140;-78
2022/07/04 23:29:47;;;;;;;1.17;1.00;;;;;;;;;;10340149;28;20042;-78
2022/07/04 23:34:47;;;;;;;3.83;1.33;;;;;;;;;;10342690;28;20050;-77
2022/07/04 23:39:48;;;;;;;1.20;1.10;;;;;;;;;;10348599;28;20763;-78
2022/07/04 23:44:49;;;;;;;1.40;1.20;;;;;;;;;;10345719;28;20042;-77
2022/07/04 23:49:50;;;;;;;2.40;1.00;;;;;;;;;;10354424;28;20398;-77
2022/07/04 23:54:50;;;;;;;1.33;1.20;;;;;;;;;;10341161;28;20512;-77
2022/07/04 23:59:50;;;;;;;1.65;1.13;;;;;;;;;;10348921;28;20038;-77
